Adrian, North Dakota
Current Conditions -  °F | °C
As of 9:56 PM on Saturday 20 Dec 2014 (Local Time) from KJMS Reporting Station
Haze Haze  
Wind Chill: -9°   Ceiling: 400
Heat Index: -3°   Visibility: 4mi
Dew Point: -4°   Wind: 13mph
Humidity: 89%   Direction: 180°S
Pressure: 29.81"   Gusts: NA
Location:  46.6526°N, 98.6214°W
Report Text: KJMS 210356Z AUTO 18011KT 4SM BR OVC004 M03/M04 A2981 RMK AO2 SLP117 T10281044
Loading
Personal Weather Stations






























Interactive Weather Map New forecast layout! Learn more

10-Day Weather Forecast

Advertisements
Track Severe Weather on mobile